sensor_id;sensor_type;location;lat;lon;timestamp;P1;durP1;ratioP1;P2;durP2;ratioP2
39022;SDS011;25908;51.984;5.928;2023-05-10T00:00:33;15.85;;;12.75;;
39022;SDS011;25908;51.984;5.928;2023-05-10T00:02:58;17.17;;;12.82;;
39022;SDS011;25908;51.984;5.928;2023-05-10T00:05:24;14.95;;;12.40;;
39022;SDS011;25908;51.984;5.928;2023-05-10T00:07:49;17.35;;;13.85;;
39022;SDS011;25908;51.984;5.928;2023-05-10T00:10:15;21.38;;;13.23;;
39022;SDS011;25908;51.984;5.928;2023-05-10T00:12:41;19.42;;;14.73;;
39022;SDS011;25908;51.984;5.928;2023-05-10T00:15:07;18.40;;;13.85;;
39022;SDS011;25908;51.984;5.928;2023-05-10T00:17:33;20.08;;;15.43;;
39022;SDS011;25908;51.984;5.928;2023-05-10T00:19:59;24.00;;;17.23;;
39022;SDS011;25908;51.984;5.928;2023-05-10T00:22:25;21.98;;;16.33;;
39022;SDS011;25908;51.984;5.928;2023-05-10T00:24:50;24.25;;;17.58;;
39022;SDS011;25908;51.984;5.928;2023-05-10T00:27:16;25.85;;;17.58;;
39022;SDS011;25908;51.984;5.928;2023-05-10T00:29:41;26.25;;;17.75;;
39022;SDS011;25908;51.984;5.928;2023-05-10T00:32:07;26.65;;;18.55;;
39022;SDS011;25908;51.984;5.928;2023-05-10T00:34:33;28.60;;;20.17;;
39022;SDS011;25908;51.984;5.928;2023-05-10T00:36:58;30.27;;;20.50;;
39022;SDS011;25908;51.984;5.928;2023-05-10T00:39:24;29.58;;;20.83;;
39022;SDS011;25908;51.984;5.928;2023-05-10T00:41:51;29.85;;;20.85;;
39022;SDS011;25908;51.984;5.928;2023-05-10T00:44:17;34.63;;;23.00;;
39022;SDS011;25908;51.984;5.928;2023-05-10T00:46:43;33.38;;;22.58;;
39022;SDS011;25908;51.984;5.928;2023-05-10T00:49:09;35.63;;;24.85;;
39022;SDS011;25908;51.984;5.928;2023-05-10T00:51:35;35.10;;;24.90;;
39022;SDS011;25908;51.984;5.928;2023-05-10T00:54:01;36.15;;;26.00;;
39022;SDS011;25908;51.984;5.928;2023-05-10T00:56:27;39.35;;;26.40;;
39022;SDS011;25908;51.984;5.928;2023-05-10T00:58:54;37.53;;;26.17;;
39022;SDS011;25908;51.984;5.928;2023-05-10T01:01:21;38.85;;;26.70;;
39022;SDS011;25908;51.984;5.928;2023-05-10T01:03:55;38.30;;;27.52;;
39022;SDS011;25908;51.984;5.928;2023-05-10T01:06:20;40.85;;;27.83;;
39022;SDS011;25908;51.984;5.928;2023-05-10T01:08:46;42.08;;;29.23;;
39022;SDS011;25908;51.984;5.928;2023-05-10T01:11:12;42.10;;;28.30;;
39022;SDS011;25908;51.984;5.928;2023-05-10T01:13:39;39.25;;;26.80;;
39022;SDS011;25908;51.984;5.928;2023-05-10T01:16:07;42.65;;;27.70;;
39022;SDS011;25908;51.984;5.928;2023-05-10T01:18:34;39.35;;;28.45;;
39022;SDS011;25908;51.984;5.928;2023-05-10T01:21:09;44.63;;;29.48;;
39022;SDS011;25908;51.984;5.928;2023-05-10T01:34:35;45.15;;;29.60;;
39022;SDS011;25908;51.984;5.928;2023-05-10T01:37:11;45.70;;;29.40;;
39022;SDS011;25908;51.984;5.928;2023-05-10T01:39:45;48.55;;;30.20;;
39022;SDS011;25908;51.984;5.928;2023-05-10T01:42:29;47.10;;;29.73;;
39022;SDS011;25908;51.984;5.928;2023-05-10T01:47:44;45.85;;;29.70;;
39022;SDS011;25908;51.984;5.928;2023-05-10T01:50:19;42.67;;;28.70;;
39022;SDS011;25908;51.984;5.928;2023-05-10T01:52:54;42.33;;;28.55;;
39022;SDS011;25908;51.984;5.928;2023-05-10T01:55:22;42.03;;;28.55;;
39022;SDS011;25908;51.984;5.928;2023-05-10T01:57:55;45.03;;;30.40;;
39022;SDS011;25908;51.984;5.928;2023-05-10T02:00:27;47.22;;;29.25;;
39022;SDS011;25908;51.984;5.928;2023-05-10T02:02:54;45.60;;;29.42;;
39022;SDS011;25908;51.984;5.928;2023-05-10T02:05:21;41.13;;;27.80;;
39022;SDS011;25908;51.984;5.928;2023-05-10T02:07:47;45.50;;;27.88;;
39022;SDS011;25908;51.984;5.928;2023-05-10T02:10:15;40.92;;;26.30;;
39022;SDS011;25908;51.984;5.928;2023-05-10T02:12:42;40.78;;;27.33;;
39022;SDS011;25908;51.984;5.928;2023-05-10T02:15:11;40.80;;;26.40;;
39022;SDS011;25908;51.984;5.928;2023-05-10T02:17:40;39.53;;;26.33;;
39022;SDS011;25908;51.984;5.928;2023-05-10T02:20:08;42.53;;;26.83;;
39022;SDS011;25908;51.984;5.928;2023-05-10T02:22:35;44.63;;;28.25;;
39022;SDS011;25908;51.984;5.928;2023-05-10T02:25:01;40.20;;;25.45;;
39022;SDS011;25908;51.984;5.928;2023-05-10T02:27:28;38.85;;;25.80;;
39022;SDS011;25908;51.984;5.928;2023-05-10T02:29:55;43.78;;;26.60;;
39022;SDS011;25908;51.984;5.928;2023-05-10T02:32:22;44.30;;;25.80;;
39022;SDS011;25908;51.984;5.928;2023-05-10T02:34:51;42.60;;;27.25;;
39022;SDS011;25908;51.984;5.928;2023-05-10T02:37:20;42.22;;;25.13;;
39022;SDS011;25908;51.984;5.928;2023-05-10T02:39:50;45.47;;;26.80;;
39022;SDS011;25908;51.984;5.928;2023-05-10T02:42:19;45.30;;;28.02;;
39022;SDS011;25908;51.984;5.928;2023-05-10T02:44:48;46.38;;;27.25;;
39022;SDS011;25908;51.984;5.928;2023-05-10T02:47:17;43.00;;;25.30;;
39022;SDS011;25908;51.984;5.928;2023-05-10T02:49:44;50.28;;;28.42;;
39022;SDS011;25908;51.984;5.928;2023-05-10T02:52:09;43.13;;;25.30;;
39022;SDS011;25908;51.984;5.928;2023-05-10T02:54:45;43.70;;;26.65;;
39022;SDS011;25908;51.984;5.928;2023-05-10T02:57:20;49.47;;;29.10;;
39022;SDS011;25908;51.984;5.928;2023-05-10T02:59:51;47.60;;;27.90;;
39022;SDS011;25908;51.984;5.928;2023-05-10T03:02:16;51.55;;;29.13;;
39022;SDS011;25908;51.984;5.928;2023-05-10T03:04:42;45.88;;;26.77;;
39022;SDS011;25908;51.984;5.928;2023-05-10T03:07:08;46.33;;;28.17;;
39022;SDS011;25908;51.984;5.928;2023-05-10T03:09:34;49.30;;;29.50;;
39022;SDS011;25908;51.984;5.928;2023-05-10T03:12:01;53.22;;;31.17;;
39022;SDS011;25908;51.984;5.928;2023-05-10T03:23:20;49.85;;;29.98;;
39022;SDS011;25908;51.984;5.928;2023-05-10T03:25:49;52.22;;;31.23;;
39022;SDS011;25908;51.984;5.928;2023-05-10T03:28:16;47.28;;;29.45;;
39022;SDS011;25908;51.984;5.928;2023-05-10T03:30:43;50.58;;;31.27;;
39022;SDS011;25908;51.984;5.928;2023-05-10T03:33:09;51.65;;;32.25;;
39022;SDS011;25908;51.984;5.928;2023-05-10T03:35:35;55.22;;;34.03;;
39022;SDS011;25908;51.984;5.928;2023-05-10T03:38:01;50.22;;;30.45;;
39022;SDS011;25908;51.984;5.928;2023-05-10T03:40:26;48.78;;;30.42;;
39022;SDS011;25908;51.984;5.928;2023-05-10T03:42:57;53.25;;;30.13;;
39022;SDS011;25908;51.984;5.928;2023-05-10T03:45:23;52.53;;;30.90;;
39022;SDS011;25908;51.984;5.928;2023-05-10T03:47:49;46.13;;;29.92;;
39022;SDS011;25908;51.984;5.928;2023-05-10T03:50:14;46.88;;;29.73;;
39022;SDS011;25908;51.984;5.928;2023-05-10T03:52:40;56.20;;;31.63;;
39022;SDS011;25908;51.984;5.928;2023-05-10T03:55:06;48.38;;;30.80;;
39022;SDS011;25908;51.984;5.928;2023-05-10T03:57:32;49.47;;;30.40;;
39022;SDS011;25908;51.984;5.928;2023-05-10T03:59:58;45.63;;;29.77;;
39022;SDS011;25908;51.984;5.928;2023-05-10T04:02:23;49.15;;;29.80;;
39022;SDS011;25908;51.984;5.928;2023-05-10T04:04:49;47.88;;;29.38;;
39022;SDS011;25908;51.984;5.928;2023-05-10T04:07:15;50.65;;;30.67;;
39022;SDS011;25908;51.984;5.928;2023-05-10T04:09:40;53.15;;;31.88;;
39022;SDS011;25908;51.984;5.928;2023-05-10T04:12:06;52.75;;;30.90;;
39022;SDS011;25908;51.984;5.928;2023-05-10T04:14:32;52.00;;;32.05;;
39022;SDS011;25908;51.984;5.928;2023-05-10T04:16:58;49.78;;;29.55;;
39022;SDS011;25908;51.984;5.928;2023-05-10T04:19:23;45.63;;;29.33;;
39022;SDS011;25908;51.984;5.928;2023-05-10T04:21:49;47.13;;;29.42;;
39022;SDS011;25908;51.984;5.928;2023-05-10T04:24:15;45.42;;;28.80;;
39022;SDS011;25908;51.984;5.928;2023-05-10T04:26:40;50.55;;;31.58;;
39022;SDS011;25908;51.984;5.928;2023-05-10T04:29:06;50.35;;;30.23;;
39022;SDS011;25908;51.984;5.928;2023-05-10T04:31:31;49.42;;;28.55;;
39022;SDS011;25908;51.984;5.928;2023-05-10T04:33:57;49.67;;;30.25;;
39022;SDS011;25908;51.984;5.928;2023-05-10T04:36:22;40.95;;;26.45;;
39022;SDS011;25908;51.984;5.928;2023-05-10T04:38:48;42.30;;;26.33;;
39022;SDS011;25908;51.984;5.928;2023-05-10T04:41:14;46.95;;;28.17;;
39022;SDS011;25908;51.984;5.928;2023-05-10T04:43:39;40.70;;;25.67;;
39022;SDS011;25908;51.984;5.928;2023-05-10T04:46:05;43.55;;;26.75;;
39022;SDS011;25908;51.984;5.928;2023-05-10T04:48:32;42.20;;;26.58;;
39022;SDS011;25908;51.984;5.928;2023-05-10T04:50:57;43.55;;;25.63;;
39022;SDS011;25908;51.984;5.928;2023-05-10T04:53:23;41.30;;;26.23;;
39022;SDS011;25908;51.984;5.928;2023-05-10T04:55:48;43.78;;;27.83;;
39022;SDS011;25908;51.984;5.928;2023-05-10T04:58:14;56.45;;;28.15;;
39022;SDS011;25908;51.984;5.928;2023-05-10T05:00:40;49.58;;;29.33;;
39022;SDS011;25908;51.984;5.928;2023-05-10T05:03:06;51.10;;;28.08;;
39022;SDS011;25908;51.984;5.928;2023-05-10T05:05:32;50.97;;;28.17;;
39022;SDS011;25908;51.984;5.928;2023-05-10T05:07:57;46.28;;;27.35;;
39022;SDS011;25908;51.984;5.928;2023-05-10T05:10:23;41.30;;;27.17;;
39022;SDS011;25908;51.984;5.928;2023-05-10T05:12:49;45.40;;;26.88;;
39022;SDS011;25908;51.984;5.928;2023-05-10T05:15:14;44.55;;;26.80;;
39022;SDS011;25908;51.984;5.928;2023-05-10T05:17:41;43.40;;;26.52;;
39022;SDS011;25908;51.984;5.928;2023-05-10T05:20:07;46.67;;;26.15;;
39022;SDS011;25908;51.984;5.928;2023-05-10T05:22:33;44.47;;;26.48;;
39022;SDS011;25908;51.984;5.928;2023-05-10T05:25:00;40.42;;;25.17;;
39022;SDS011;25908;51.984;5.928;2023-05-10T05:27:27;41.15;;;25.85;;
39022;SDS011;25908;51.984;5.928;2023-05-10T05:29:53;43.00;;;24.60;;
39022;SDS011;25908;51.984;5.928;2023-05-10T05:32:19;47.50;;;26.80;;
39022;SDS011;25908;51.984;5.928;2023-05-10T05:34:45;40.88;;;24.35;;
39022;SDS011;25908;51.984;5.928;2023-05-10T05:37:14;42.38;;;25.40;;
39022;SDS011;25908;51.984;5.928;2023-05-10T05:39:41;46.78;;;27.00;;
39022;SDS011;25908;51.984;5.928;2023-05-10T05:42:07;40.97;;;23.58;;
39022;SDS011;25908;51.984;5.928;2023-05-10T05:44:33;41.63;;;24.25;;
39022;SDS011;25908;51.984;5.928;2023-05-10T05:46:59;41.58;;;25.77;;
39022;SDS011;25908;51.984;5.928;2023-05-10T05:49:24;47.35;;;26.55;;
39022;SDS011;25908;51.984;5.928;2023-05-10T05:51:50;42.72;;;24.95;;
39022;SDS011;25908;51.984;5.928;2023-05-10T05:54:15;40.45;;;24.55;;
39022;SDS011;25908;51.984;5.928;2023-05-10T05:56:44;40.42;;;24.27;;
39022;SDS011;25908;51.984;5.928;2023-05-10T05:59:10;48.22;;;25.95;;
39022;SDS011;25908;51.984;5.928;2023-05-10T06:01:36;37.75;;;23.75;;
39022;SDS011;25908;51.984;5.928;2023-05-10T06:04:01;38.47;;;23.75;;
39022;SDS011;25908;51.984;5.928;2023-05-10T06:06:27;43.00;;;23.77;;
39022;SDS011;25908;51.984;5.928;2023-05-10T06:08:53;40.78;;;24.02;;
39022;SDS011;25908;51.984;5.928;2023-05-10T06:11:19;42.75;;;24.83;;
39022;SDS011;25908;51.984;5.928;2023-05-10T06:13:45;40.47;;;24.48;;
39022;SDS011;25908;51.984;5.928;2023-05-10T06:16:12;49.15;;;26.10;;
39022;SDS011;25908;51.984;5.928;2023-05-10T06:18:38;46.28;;;25.65;;
39022;SDS011;25908;51.984;5.928;2023-05-10T06:21:03;47.45;;;25.63;;
39022;SDS011;25908;51.984;5.928;2023-05-10T06:23:29;44.97;;;23.85;;
39022;SDS011;25908;51.984;5.928;2023-05-10T06:25:55;50.85;;;25.27;;
39022;SDS011;25908;51.984;5.928;2023-05-10T06:28:20;41.90;;;25.27;;
39022;SDS011;25908;51.984;5.928;2023-05-10T06:30:46;43.88;;;25.27;;
39022;SDS011;25908;51.984;5.928;2023-05-10T06:33:11;44.40;;;26.52;;
39022;SDS011;25908;51.984;5.928;2023-05-10T06:35:37;45.10;;;27.38;;
39022;SDS011;25908;51.984;5.928;2023-05-10T06:38:03;46.10;;;26.48;;
39022;SDS011;25908;51.984;5.928;2023-05-10T06:40:29;49.78;;;27.17;;
39022;SDS011;25908;51.984;5.928;2023-05-10T06:42:55;46.65;;;26.30;;
39022;SDS011;25908;51.984;5.928;2023-05-10T06:45:20;48.28;;;26.55;;
39022;SDS011;25908;51.984;5.928;2023-05-10T06:47:46;45.75;;;25.52;;
39022;SDS011;25908;51.984;5.928;2023-05-10T06:50:11;45.88;;;25.20;;
39022;SDS011;25908;51.984;5.928;2023-05-10T06:52:37;46.75;;;26.30;;
39022;SDS011;25908;51.984;5.928;2023-05-10T06:55:03;44.92;;;25.92;;
39022;SDS011;25908;51.984;5.928;2023-05-10T06:57:30;42.78;;;24.98;;
39022;SDS011;25908;51.984;5.928;2023-05-10T06:59:56;46.47;;;24.98;;
39022;SDS011;25908;51.984;5.928;2023-05-10T07:02:22;48.13;;;25.50;;
39022;SDS011;25908;51.984;5.928;2023-05-10T07:04:48;51.45;;;25.73;;
39022;SDS011;25908;51.984;5.928;2023-05-10T07:07:14;44.63;;;27.50;;
39022;SDS011;25908;51.984;5.928;2023-05-10T07:09:39;42.63;;;26.33;;
39022;SDS011;25908;51.984;5.928;2023-05-10T07:12:05;44.05;;;27.00;;
39022;SDS011;25908;51.984;5.928;2023-05-10T07:14:31;46.35;;;27.00;;
39022;SDS011;25908;51.984;5.928;2023-05-10T07:16:56;47.53;;;27.50;;
39022;SDS011;25908;51.984;5.928;2023-05-10T07:19:22;46.55;;;27.25;;
39022;SDS011;25908;51.984;5.928;2023-05-10T07:21:48;39.30;;;25.75;;
39022;SDS011;25908;51.984;5.928;2023-05-10T07:24:13;44.60;;;26.25;;
39022;SDS011;25908;51.984;5.928;2023-05-10T07:26:39;48.53;;;29.08;;
39022;SDS011;25908;51.984;5.928;2023-05-10T07:29:04;47.22;;;27.73;;
39022;SDS011;25908;51.984;5.928;2023-05-10T07:31:30;44.92;;;26.23;;
39022;SDS011;25908;51.984;5.928;2023-05-10T07:33:56;44.78;;;27.83;;
39022;SDS011;25908;51.984;5.928;2023-05-10T07:36:21;46.03;;;27.27;;
39022;SDS011;25908;51.984;5.928;2023-05-10T07:38:47;53.10;;;27.45;;
39022;SDS011;25908;51.984;5.928;2023-05-10T07:41:14;46.05;;;27.05;;
39022;SDS011;25908;51.984;5.928;2023-05-10T07:43:39;46.50;;;27.38;;
39022;SDS011;25908;51.984;5.928;2023-05-10T07:46:05;50.15;;;27.92;;
39022;SDS011;25908;51.984;5.928;2023-05-10T07:48:31;49.30;;;27.75;;
39022;SDS011;25908;51.984;5.928;2023-05-10T07:50:56;47.03;;;26.55;;
39022;SDS011;25908;51.984;5.928;2023-05-10T07:53:22;51.97;;;28.00;;
39022;SDS011;25908;51.984;5.928;2023-05-10T07:55:51;46.85;;;27.63;;
39022;SDS011;25908;51.984;5.928;2023-05-10T07:58:19;43.78;;;25.75;;
39022;SDS011;25908;51.984;5.928;2023-05-10T08:00:45;42.15;;;24.63;;
39022;SDS011;25908;51.984;5.928;2023-05-10T08:03:10;42.78;;;24.63;;
39022;SDS011;25908;51.984;5.928;2023-05-10T08:05:36;44.28;;;24.90;;
39022;SDS011;25908;51.984;5.928;2023-05-10T08:08:02;44.30;;;23.92;;
39022;SDS011;25908;51.984;5.928;2023-05-10T08:10:27;43.00;;;23.67;;
39022;SDS011;25908;51.984;5.928;2023-05-10T08:12:53;42.38;;;23.17;;
39022;SDS011;25908;51.984;5.928;2023-05-10T08:15:19;39.67;;;23.10;;
39022;SDS011;25908;51.984;5.928;2023-05-10T08:17:44;39.67;;;22.70;;
39022;SDS011;25908;51.984;5.928;2023-05-10T08:20:10;39.95;;;22.88;;
39022;SDS011;25908;51.984;5.928;2023-05-10T08:22:37;40.10;;;23.83;;
39022;SDS011;25908;51.984;5.928;2023-05-10T08:25:03;38.70;;;23.20;;
39022;SDS011;25908;51.984;5.928;2023-05-10T08:27:29;40.60;;;24.25;;
39022;SDS011;25908;51.984;5.928;2023-05-10T08:29:54;40.72;;;23.92;;
39022;SDS011;25908;51.984;5.928;2023-05-10T08:32:20;34.67;;;22.15;;
39022;SDS011;25908;51.984;5.928;2023-05-10T08:34:46;35.00;;;22.27;;
39022;SDS011;25908;51.984;5.928;2023-05-10T08:37:11;40.47;;;23.05;;
39022;SDS011;25908;51.984;5.928;2023-05-10T08:39:38;37.05;;;22.88;;
39022;SDS011;25908;51.984;5.928;2023-05-10T08:42:03;36.20;;;21.85;;
39022;SDS011;25908;51.984;5.928;2023-05-10T08:44:34;34.00;;;21.88;;
39022;SDS011;25908;51.984;5.928;2023-05-10T08:47:06;40.10;;;21.98;;
39022;SDS011;25908;51.984;5.928;2023-05-10T08:49:33;29.77;;;19.10;;
39022;SDS011;25908;51.984;5.928;2023-05-10T08:51:59;32.33;;;20.33;;
39022;SDS011;25908;51.984;5.928;2023-05-10T08:54:29;27.48;;;18.55;;
39022;SDS011;25908;51.984;5.928;2023-05-10T08:56:56;28.17;;;17.90;;
39022;SDS011;25908;51.984;5.928;2023-05-10T08:59:22;28.08;;;16.55;;
39022;SDS011;25908;51.984;5.928;2023-05-10T09:01:47;24.67;;;15.10;;
39022;SDS011;25908;51.984;5.928;2023-05-10T09:04:15;20.73;;;14.68;;
39022;SDS011;25908;51.984;5.928;2023-05-10T09:06:40;19.95;;;14.07;;
39022;SDS011;25908;51.984;5.928;2023-05-10T09:09:06;18.83;;;13.93;;
39022;SDS011;25908;51.984;5.928;2023-05-10T09:11:32;25.67;;;14.23;;
39022;SDS011;25908;51.984;5.928;2023-05-10T09:13:58;18.98;;;13.02;;
39022;SDS011;25908;51.984;5.928;2023-05-10T09:16:23;24.98;;;14.57;;
39022;SDS011;25908;51.984;5.928;2023-05-10T09:18:49;17.75;;;12.60;;
39022;SDS011;25908;51.984;5.928;2023-05-10T09:21:15;19.17;;;12.60;;
39022;SDS011;25908;51.984;5.928;2023-05-10T09:23:44;18.48;;;12.85;;
39022;SDS011;25908;51.984;5.928;2023-05-10T09:26:11;17.58;;;10.95;;
39022;SDS011;25908;51.984;5.928;2023-05-10T09:28:50;18.85;;;11.45;;
39022;SDS011;25908;51.984;5.928;2023-05-10T09:31:23;16.35;;;10.65;;
39022;SDS011;25908;51.984;5.928;2023-05-10T09:33:50;10.85;;;7.63;;
39022;SDS011;25908;51.984;5.928;2023-05-10T09:36:16;13.13;;;8.13;;
39022;SDS011;25908;51.984;5.928;2023-05-10T09:38:46;10.00;;;7.07;;
39022;SDS011;25908;51.984;5.928;2023-05-10T09:41:20;10.48;;;7.70;;
39022;SDS011;25908;51.984;5.928;2023-05-10T09:43:47;10.73;;;7.32;;
39022;SDS011;25908;51.984;5.928;2023-05-10T09:46:13;26.55;;;8.77;;
39022;SDS011;25908;51.984;5.928;2023-05-10T09:48:43;16.65;;;9.18;;
39022;SDS011;25908;51.984;5.928;2023-05-10T09:51:22;12.82;;;7.60;;
39022;SDS011;25908;51.984;5.928;2023-05-10T09:54:08;10.10;;;7.78;;
39022;SDS011;25908;51.984;5.928;2023-05-10T09:56:35;13.20;;;7.25;;
39022;SDS011;25908;51.984;5.928;2023-05-10T09:59:03;10.93;;;8.07;;
39022;SDS011;25908;51.984;5.928;2023-05-10T10:01:30;11.48;;;7.03;;
39022;SDS011;25908;51.984;5.928;2023-05-10T10:03:56;11.63;;;7.43;;
39022;SDS011;25908;51.984;5.928;2023-05-10T10:06:24;10.43;;;6.55;;
39022;SDS011;25908;51.984;5.928;2023-05-10T10:08:51;9.02;;;6.43;;
39022;SDS011;25908;51.984;5.928;2023-05-10T10:11:19;9.95;;;6.72;;
39022;SDS011;25908;51.984;5.928;2023-05-10T10:13:44;10.85;;;6.95;;
39022;SDS011;25908;51.984;5.928;2023-05-10T10:16:10;10.55;;;7.20;;
39022;SDS011;25908;51.984;5.928;2023-05-10T10:18:36;9.57;;;7.00;;
39022;SDS011;25908;51.984;5.928;2023-05-10T10:21:07;9.60;;;6.70;;
39022;SDS011;25908;51.984;5.928;2023-05-10T10:23:36;10.20;;;7.07;;
39022;SDS011;25908;51.984;5.928;2023-05-10T10:26:02;12.95;;;7.65;;
39022;SDS011;25908;51.984;5.928;2023-05-10T10:33:59;11.20;;;7.63;;
39022;SDS011;25908;51.984;5.928;2023-05-10T10:36:28;11.32;;;7.63;;
39022;SDS011;25908;51.984;5.928;2023-05-10T10:38:55;10.95;;;7.57;;
39022;SDS011;25908;51.984;5.928;2023-05-10T10:41:30;12.93;;;8.50;;
39022;SDS011;25908;51.984;5.928;2023-05-10T10:49:27;12.05;;;8.23;;
39022;SDS011;25908;51.984;5.928;2023-05-10T10:55:29;11.63;;;8.27;;
39022;SDS011;25908;51.984;5.928;2023-05-10T10:57:43;13.02;;;8.20;;
39022;SDS011;25908;51.984;5.928;2023-05-10T11:00:19;14.40;;;9.52;;
39022;SDS011;25908;51.984;5.928;2023-05-10T11:08:19;12.55;;;7.63;;
39022;SDS011;25908;51.984;5.928;2023-05-10T11:13:34;11.88;;;7.93;;
39022;SDS011;25908;51.984;5.928;2023-05-10T11:16:13;10.10;;;7.22;;
39022;SDS011;25908;51.984;5.928;2023-05-10T11:18:41;12.38;;;7.82;;
39022;SDS011;25908;51.984;5.928;2023-05-10T11:21:24;10.90;;;8.13;;
39022;SDS011;25908;51.984;5.928;2023-05-10T11:24:00;10.70;;;6.93;;
39022;SDS011;25908;51.984;5.928;2023-05-10T11:26:31;9.13;;;7.05;;
39022;SDS011;25908;51.984;5.928;2023-05-10T11:28:57;9.18;;;6.85;;
39022;SDS011;25908;51.984;5.928;2023-05-10T11:31:25;11.95;;;7.22;;
39022;SDS011;25908;51.984;5.928;2023-05-10T11:33:52;10.32;;;7.00;;
39022;SDS011;25908;51.984;5.928;2023-05-10T11:36:26;9.15;;;7.15;;
39022;SDS011;25908;51.984;5.928;2023-05-10T11:41:20;10.63;;;6.80;;
39022;SDS011;25908;51.984;5.928;2023-05-10T11:43:51;10.27;;;6.97;;
39022;SDS011;25908;51.984;5.928;2023-05-10T11:46:19;9.63;;;6.78;;
39022;SDS011;25908;51.984;5.928;2023-05-10T11:48:46;8.05;;;5.47;;
39022;SDS011;25908;51.984;5.928;2023-05-10T11:51:15;9.18;;;6.00;;
39022;SDS011;25908;51.984;5.928;2023-05-10T11:53:44;9.27;;;5.60;;
39022;SDS011;25908;51.984;5.928;2023-05-10T11:56:10;8.60;;;6.32;;
39022;SDS011;25908;51.984;5.928;2023-05-10T11:58:36;9.10;;;6.05;;
39022;SDS011;25908;51.984;5.928;2023-05-10T12:01:03;8.45;;;6.22;;
39022;SDS011;25908;51.984;5.928;2023-05-10T12:03:30;11.60;;;7.25;;
39022;SDS011;25908;51.984;5.928;2023-05-10T12:05:56;8.30;;;6.10;;
39022;SDS011;25908;51.984;5.928;2023-05-10T12:08:23;12.05;;;7.10;;
39022;SDS011;25908;51.984;5.928;2023-05-10T12:10:50;8.82;;;6.53;;
39022;SDS011;25908;51.984;5.928;2023-05-10T12:13:17;9.75;;;7.00;;
39022;SDS011;25908;51.984;5.928;2023-05-10T12:15:44;10.35;;;6.95;;
39022;SDS011;25908;51.984;5.928;2023-05-10T12:18:10;11.27;;;6.95;;
39022;SDS011;25908;51.984;5.928;2023-05-10T12:20:36;9.50;;;6.20;;
39022;SDS011;25908;51.984;5.928;2023-05-10T12:23:02;8.65;;;6.60;;
39022;SDS011;25908;51.984;5.928;2023-05-10T12:25:36;9.93;;;6.70;;
39022;SDS011;25908;51.984;5.928;2023-05-10T12:28:03;8.70;;;6.43;;
39022;SDS011;25908;51.984;5.928;2023-05-10T12:30:31;11.55;;;7.07;;
39022;SDS011;25908;51.984;5.928;2023-05-10T12:32:59;9.32;;;5.70;;
39022;SDS011;25908;51.984;5.928;2023-05-10T12:35:32;9.50;;;5.50;;
39022;SDS011;25908;51.984;5.928;2023-05-10T12:37:58;7.75;;;5.30;;
39022;SDS011;25908;51.984;5.928;2023-05-10T12:40:24;9.30;;;5.72;;
39022;SDS011;25908;51.984;5.928;2023-05-10T12:42:50;7.47;;;5.20;;
39022;SDS011;25908;51.984;5.928;2023-05-10T12:45:17;6.70;;;4.88;;
39022;SDS011;25908;51.984;5.928;2023-05-10T12:47:43;7.20;;;4.75;;
39022;SDS011;25908;51.984;5.928;2023-05-10T12:50:08;7.10;;;4.72;;
39022;SDS011;25908;51.984;5.928;2023-05-10T12:52:34;7.13;;;4.28;;
39022;SDS011;25908;51.984;5.928;2023-05-10T12:55:00;6.68;;;4.32;;
39022;SDS011;25908;51.984;5.928;2023-05-10T12:57:26;5.55;;;4.13;;
39022;SDS011;25908;51.984;5.928;2023-05-10T12:59:52;6.60;;;4.20;;
39022;SDS011;25908;51.984;5.928;2023-05-10T13:02:18;5.32;;;3.85;;
39022;SDS011;25908;51.984;5.928;2023-05-10T13:04:45;8.07;;;3.88;;
39022;SDS011;25908;51.984;5.928;2023-05-10T13:07:11;5.60;;;3.65;;
39022;SDS011;25908;51.984;5.928;2023-05-10T13:09:36;6.35;;;4.38;;
39022;SDS011;25908;51.984;5.928;2023-05-10T13:12:02;6.30;;;4.25;;
39022;SDS011;25908;51.984;5.928;2023-05-10T13:14:29;6.53;;;3.92;;
39022;SDS011;25908;51.984;5.928;2023-05-10T13:16:56;6.55;;;4.10;;
39022;SDS011;25908;51.984;5.928;2023-05-10T13:19:22;7.43;;;3.90;;
39022;SDS011;25908;51.984;5.928;2023-05-10T13:21:47;6.90;;;3.72;;
39022;SDS011;25908;51.984;5.928;2023-05-10T13:24:13;6.10;;;3.83;;
39022;SDS011;25908;51.984;5.928;2023-05-10T13:26:41;8.00;;;4.70;;
39022;SDS011;25908;51.984;5.928;2023-05-10T13:29:07;6.57;;;4.22;;
39022;SDS011;25908;51.984;5.928;2023-05-10T13:31:33;8.15;;;4.68;;
39022;SDS011;25908;51.984;5.928;2023-05-10T13:33:59;6.68;;;4.30;;
39022;SDS011;25908;51.984;5.928;2023-05-10T13:36:27;6.10;;;4.10;;
39022;SDS011;25908;51.984;5.928;2023-05-10T13:38:53;6.25;;;4.28;;
39022;SDS011;25908;51.984;5.928;2023-05-10T13:41:18;7.35;;;3.88;;
39022;SDS011;25908;51.984;5.928;2023-05-10T13:43:44;5.70;;;3.72;;
39022;SDS011;25908;51.984;5.928;2023-05-10T13:46:09;6.50;;;4.32;;
39022;SDS011;25908;51.984;5.928;2023-05-10T13:48:35;6.65;;;4.15;;
39022;SDS011;25908;51.984;5.928;2023-05-10T13:51:02;7.35;;;4.40;;
39022;SDS011;25908;51.984;5.928;2023-05-10T13:53:28;8.80;;;5.00;;
39022;SDS011;25908;51.984;5.928;2023-05-10T13:55:53;6.72;;;4.60;;
39022;SDS011;25908;51.984;5.928;2023-05-10T13:58:19;7.07;;;5.22;;
39022;SDS011;25908;51.984;5.928;2023-05-10T14:00:45;7.20;;;4.57;;
39022;SDS011;25908;51.984;5.928;2023-05-10T14:03:10;10.02;;;5.45;;
39022;SDS011;25908;51.984;5.928;2023-05-10T14:05:36;9.82;;;5.45;;
39022;SDS011;25908;51.984;5.928;2023-05-10T14:08:01;11.30;;;6.53;;
39022;SDS011;25908;51.984;5.928;2023-05-10T14:10:27;11.18;;;8.18;;
39022;SDS011;25908;51.984;5.928;2023-05-10T14:12:53;10.57;;;7.55;;
39022;SDS011;25908;51.984;5.928;2023-05-10T14:15:18;8.90;;;7.25;;
39022;SDS011;25908;51.984;5.928;2023-05-10T14:17:44;10.60;;;7.38;;
39022;SDS011;25908;51.984;5.928;2023-05-10T14:20:10;9.32;;;7.72;;
39022;SDS011;25908;51.984;5.928;2023-05-10T14:22:36;8.60;;;6.90;;
39022;SDS011;25908;51.984;5.928;2023-05-10T14:25:01;7.32;;;6.35;;
39022;SDS011;25908;51.984;5.928;2023-05-10T14:27:27;8.77;;;7.32;;
39022;SDS011;25908;51.984;5.928;2023-05-10T14:29:53;7.68;;;6.80;;
39022;SDS011;25908;51.984;5.928;2023-05-10T14:32:18;8.55;;;6.93;;
39022;SDS011;25908;51.984;5.928;2023-05-10T14:34:44;8.63;;;7.35;;
39022;SDS011;25908;51.984;5.928;2023-05-10T14:37:10;9.25;;;6.80;;
39022;SDS011;25908;51.984;5.928;2023-05-10T14:39:36;7.28;;;5.93;;
39022;SDS011;25908;51.984;5.928;2023-05-10T14:42:02;7.00;;;5.93;;
39022;SDS011;25908;51.984;5.928;2023-05-10T14:44:28;7.60;;;5.95;;
39022;SDS011;25908;51.984;5.928;2023-05-10T14:46:53;7.07;;;5.28;;
39022;SDS011;25908;51.984;5.928;2023-05-10T14:49:20;8.23;;;5.20;;
39022;SDS011;25908;51.984;5.928;2023-05-10T14:51:47;5.82;;;4.32;;
39022;SDS011;25908;51.984;5.928;2023-05-10T14:54:13;6.18;;;4.25;;
39022;SDS011;25908;51.984;5.928;2023-05-10T14:56:38;4.93;;;3.65;;
39022;SDS011;25908;51.984;5.928;2023-05-10T14:59:06;5.47;;;3.20;;
39022;SDS011;25908;51.984;5.928;2023-05-10T15:01:32;4.72;;;3.40;;
39022;SDS011;25908;51.984;5.928;2023-05-10T15:03:58;4.78;;;3.10;;
39022;SDS011;25908;51.984;5.928;2023-05-10T15:06:24;4.90;;;2.78;;
39022;SDS011;25908;51.984;5.928;2023-05-10T15:08:56;5.05;;;3.13;;
39022;SDS011;25908;51.984;5.928;2023-05-10T15:11:22;4.05;;;2.83;;
39022;SDS011;25908;51.984;5.928;2023-05-10T15:13:47;5.03;;;3.17;;